createdAt,value
2022-08-19T00:02:07.248Z,19.50
2022-08-19T00:04:39.039Z,19.50
2022-08-19T00:07:09.744Z,19.50
2022-08-19T00:09:38.929Z,19.50
2022-08-19T00:12:08.429Z,19.40
2022-08-19T00:14:44.614Z,19.30
2022-08-19T00:17:13.995Z,19.30
2022-08-19T00:19:44.504Z,19.30
2022-08-19T00:22:15.884Z,19.30
2022-08-19T00:24:50.814Z,19.20
2022-08-19T00:27:26.073Z,19.20
2022-08-19T00:29:56.520Z,19.20
2022-08-19T00:32:27.212Z,19.20
2022-08-19T00:34:58.098Z,19.10
2022-08-19T00:37:28.061Z,19.10
2022-08-19T00:39:58.497Z,19.10
2022-08-19T00:42:29.715Z,19.10
2022-08-19T00:44:59.137Z,19.00
2022-08-19T00:47:28.337Z,19.00
2022-08-19T00:50:00.879Z,19.00
2022-08-19T00:52:34.951Z,19.00
2022-08-19T00:55:06.518Z,19.00
2022-08-19T00:57:40.575Z,19.00
2022-08-19T01:00:14.620Z,19.00
2022-08-19T01:02:44.768Z,18.90
2022-08-19T01:05:19.804Z,18.90
2022-08-19T01:07:50.378Z,18.90
2022-08-19T01:10:23.578Z,18.90
2022-08-19T01:12:53.934Z,18.90
2022-08-19T01:15:26.846Z,18.90
2022-08-19T01:17:57.942Z,18.80
2022-08-19T01:20:28.536Z,18.80
2022-08-19T01:23:01.221Z,18.80
2022-08-19T01:25:34.446Z,18.80
2022-08-19T01:28:10.655Z,18.70
2022-08-19T01:30:44.255Z,18.70
2022-08-19T01:33:13.796Z,18.70
2022-08-19T01:35:43.721Z,18.70
2022-08-19T01:38:24.126Z,18.60
2022-08-19T01:40:53.813Z,18.60
2022-08-19T01:43:23.056Z,18.60
2022-08-19T01:45:52.298Z,18.50
2022-08-19T01:48:21.475Z,18.50
2022-08-19T01:50:50.756Z,18.50
2022-08-19T01:53:21.244Z,18.40
2022-08-19T01:55:52.963Z,18.40
2022-08-19T01:58:26.949Z,18.40
2022-08-19T02:00:56.166Z,18.40
2022-08-19T02:03:25.326Z,18.30
2022-08-19T02:05:58.991Z,18.30
2022-08-19T02:08:30.245Z,18.30
2022-08-19T02:13:29.114Z,18.20
2022-08-19T02:15:59.121Z,18.20
2022-08-19T02:18:29.455Z,18.20
2022-08-19T02:20:59.386Z,18.20
2022-08-19T02:23:29.802Z,18.10
2022-08-19T02:25:59.485Z,18.10
2022-08-19T02:28:28.635Z,18.10
2022-08-19T02:30:57.701Z,18.10
2022-08-19T02:33:26.936Z,18.00
2022-08-19T02:35:55.966Z,18.00
2022-08-19T02:38:31.137Z,17.90
2022-08-19T02:41:03.398Z,17.90
2022-08-19T02:43:37.657Z,17.90
2022-08-19T02:46:15.355Z,17.90
2022-08-19T02:48:44.856Z,17.80
2022-08-19T02:51:20.507Z,17.80
2022-08-19T02:53:49.985Z,17.80
2022-08-19T02:56:20.863Z,17.80
2022-08-19T02:58:53.273Z,17.80
2022-08-19T03:01:26.880Z,17.80
2022-08-19T03:03:56.711Z,17.80
2022-08-19T03:06:27.124Z,17.80
2022-08-19T03:08:57.688Z,17.80
2022-08-19T03:11:32.152Z,17.70
2022-08-19T03:14:02.534Z,17.70
2022-08-19T03:16:34.267Z,17.80
2022-08-19T03:19:04.534Z,17.80
2022-08-19T03:21:36.083Z,17.80
2022-08-19T03:24:08.395Z,17.80
2022-08-19T03:26:42.876Z,17.80
2022-08-19T03:29:13.372Z,17.60
2022-08-19T03:31:52.250Z,17.60
2022-08-19T03:34:24.606Z,17.60
2022-08-19T03:36:53.640Z,17.60
2022-08-19T03:39:23.085Z,17.60
2022-08-19T03:42:32.734Z,17.60
2022-08-19T03:44:47.498Z,17.60
2022-08-19T03:47:17.989Z,17.60
2022-08-19T03:49:47.615Z,17.60
2022-08-19T03:52:17.126Z,17.60
2022-08-19T03:54:46.455Z,17.70
2022-08-19T03:57:17.287Z,17.70
2022-08-19T03:59:47.458Z,17.70
2022-08-19T04:02:16.516Z,17.70
2022-08-19T04:04:46.966Z,17.80
2022-08-19T04:07:20.425Z,17.80
2022-08-19T04:09:50.517Z,17.90
2022-08-19T04:12:21.727Z,18.00
2022-08-19T04:14:51.102Z,18.00
2022-08-19T04:17:20.918Z,18.00
2022-08-19T04:19:51.368Z,18.10
2022-08-19T04:22:22.088Z,18.10
2022-08-19T04:24:51.388Z,18.20
2022-08-19T04:27:21.991Z,18.20
2022-08-19T04:29:52.657Z,18.30
2022-08-19T04:32:22.309Z,18.30
2022-08-19T04:35:03.026Z,18.30
2022-08-19T04:37:41.625Z,18.40
2022-08-19T04:40:28.954Z,18.40
2022-08-19T04:42:59.666Z,18.50
2022-08-19T04:45:28.765Z,18.60
2022-08-19T04:48:26.405Z,18.70
2022-08-19T04:50:59.597Z,18.70
2022-08-19T04:53:30.016Z,18.80
2022-08-19T04:56:09.722Z,18.90
2022-08-19T04:58:43.721Z,19.10
2022-08-19T05:01:15.590Z,19.20
2022-08-19T05:03:44.711Z,19.20
2022-08-19T05:06:16.098Z,19.40
2022-08-19T05:08:46.669Z,19.50
2022-08-19T05:11:17.416Z,19.60
2022-08-19T05:13:49.739Z,19.70
2022-08-19T05:16:21.037Z,19.80
2022-08-19T05:19:07.899Z,20.00
2022-08-19T05:21:55.834Z,20.10
2022-08-19T05:24:28.698Z,20.20
2022-08-19T05:27:00.417Z,20.40
2022-08-19T05:29:36.396Z,20.50
2022-08-19T05:32:10.184Z,20.70
2022-08-19T05:34:40.260Z,20.90
2022-08-19T05:37:10.564Z,21.00
2022-08-19T05:39:41.883Z,21.00
2022-08-19T05:42:12.874Z,21.10
2022-08-19T05:44:46.022Z,21.20
2022-08-19T05:47:16.173Z,21.30
2022-08-19T05:49:45.838Z,21.50
2022-08-19T05:52:18.600Z,21.60
2022-08-19T05:54:51.460Z,21.70
2022-08-19T05:57:21.661Z,21.90
2022-08-19T05:59:53.179Z,22.00
2022-08-19T06:02:27.685Z,22.20
2022-08-19T06:04:56.822Z,22.30
2022-08-19T06:07:26.489Z,22.40
2022-08-19T06:10:00.347Z,22.60
2022-08-19T06:12:32.950Z,22.60
2022-08-19T06:15:06.772Z,22.70
2022-08-19T06:17:36.403Z,22.80
2022-08-19T06:20:06.543Z,22.90
2022-08-19T06:22:40.608Z,22.90
2022-08-19T06:25:10.686Z,23.10
2022-08-19T06:27:58.605Z,23.30
2022-08-19T06:30:30.915Z,23.40
2022-08-19T06:32:59.852Z,23.50
2022-08-19T06:35:30.913Z,23.60
2022-08-19T06:38:00.627Z,23.80
2022-08-19T06:40:29.660Z,23.90
2022-08-19T06:43:01.010Z,23.90
2022-08-19T06:45:35.412Z,24.10
2022-08-19T06:48:08.296Z,24.20
2022-08-19T06:50:39.729Z,24.40
2022-08-19T06:53:10.250Z,24.50
2022-08-19T06:55:39.296Z,24.60
2022-08-19T06:58:08.275Z,24.60
2022-08-19T07:00:40.175Z,24.70
2022-08-19T07:03:09.542Z,24.80
2022-08-19T07:05:45.369Z,24.90
2022-08-19T07:08:15.283Z,25.10
2022-08-19T07:10:47.276Z,25.30
2022-08-19T07:13:16.295Z,25.40
2022-08-19T07:15:48.333Z,25.60
2022-08-19T07:18:17.387Z,25.80
2022-08-19T07:20:46.476Z,26.00
2022-08-19T07:23:15.786Z,26.00
2022-08-19T07:25:52.763Z,26.00
2022-08-19T07:28:24.197Z,26.00
2022-08-19T07:30:55.826Z,26.00
2022-08-19T07:33:24.767Z,26.10
2022-08-19T07:35:57.155Z,26.10
2022-08-19T07:38:26.095Z,26.30
2022-08-19T07:40:56.506Z,26.40
2022-08-19T07:43:34.873Z,26.40
2022-08-19T07:46:05.780Z,26.50
2022-08-19T07:48:35.396Z,26.50
2022-08-19T07:51:09.566Z,26.50
2022-08-19T07:53:40.134Z,26.70
2022-08-19T07:56:09.398Z,26.90
2022-08-19T07:58:42.878Z,26.70
2022-08-19T08:01:16.841Z,26.80
2022-08-19T08:04:03.015Z,26.80
2022-08-19T08:07:03.880Z,27.00
2022-08-19T08:09:35.657Z,27.30
2022-08-19T08:12:32.903Z,27.20
2022-08-19T08:15:04.199Z,27.50
2022-08-19T08:17:49.109Z,27.60
2022-08-19T08:20:19.891Z,27.70
2022-08-19T08:23:15.621Z,27.90
2022-08-19T08:25:45.178Z,28.00
2022-08-19T08:28:18.844Z,28.20
2022-08-19T08:30:49.299Z,28.40
2022-08-19T08:33:30.218Z,28.30
2022-08-19T08:36:04.251Z,28.40
2022-08-19T08:38:42.741Z,28.60
2022-08-19T08:41:21.804Z,28.70
2022-08-19T08:43:54.335Z,28.90
2022-08-19T08:46:31.565Z,28.70
2022-08-19T08:49:09.827Z,28.90
2022-08-19T08:51:47.435Z,28.90
2022-08-19T08:54:20.619Z,28.90
2022-08-19T08:56:51.808Z,29.00
2022-08-19T08:59:27.009Z,28.90
2022-08-19T09:01:56.140Z,29.20
2022-08-19T09:04:27.000Z,29.30
2022-08-19T09:07:18.005Z,29.50
2022-08-19T09:10:04.781Z,29.40
2022-08-19T09:12:44.950Z,29.60
2022-08-19T09:15:19.403Z,29.80
2022-08-19T09:18:03.264Z,30.00
2022-08-19T09:20:37.722Z,30.00
2022-08-19T09:23:12.280Z,30.00
2022-08-19T09:25:42.490Z,30.10
2022-08-19T09:28:21.966Z,30.10
2022-08-19T09:30:52.923Z,29.90
2022-08-19T09:33:22.269Z,29.90
2022-08-19T09:35:53.432Z,29.90
2022-08-19T09:38:23.349Z,30.20
2022-08-19T09:40:52.247Z,30.20
2022-08-19T09:43:32.841Z,30.30
2022-08-19T09:46:03.092Z,30.40
2022-08-19T09:48:32.740Z,30.40
2022-08-19T09:51:11.809Z,30.60
2022-08-19T09:53:43.371Z,30.90
2022-08-19T09:56:13.187Z,30.90
2022-08-19T09:58:43.300Z,30.90
2022-08-19T10:01:18.050Z,30.90
2022-08-19T10:03:49.536Z,30.90
2022-08-19T10:06:21.279Z,30.80
2022-08-19T10:09:13.232Z,30.90
2022-08-19T10:11:52.271Z,31.10
2022-08-19T10:14:24.828Z,31.30
2022-08-19T10:16:53.933Z,31.40
2022-08-19T10:19:25.692Z,31.30
2022-08-19T10:22:00.202Z,31.50
2022-08-19T10:24:30.777Z,31.30
2022-08-19T10:27:00.741Z,31.40
2022-08-19T10:29:32.544Z,31.60
2022-08-19T10:32:03.372Z,31.80
2022-08-19T10:34:33.301Z,31.70
2022-08-19T10:37:06.212Z,31.60
2022-08-19T10:39:43.143Z,31.20
2022-08-19T10:42:14.579Z,31.40
2022-08-19T10:44:44.376Z,31.70
2022-08-19T10:47:17.621Z,31.80
2022-08-19T10:50:12.393Z,31.60
2022-08-19T10:52:50.100Z,31.60
2022-08-19T10:55:38.885Z,31.40
2022-08-19T10:58:13.684Z,31.60
2022-08-19T11:00:43.668Z,31.70
2022-08-19T11:03:12.695Z,31.90
2022-08-19T11:05:42.204Z,31.90
2022-08-19T11:08:22.121Z,32.00
2022-08-19T11:11:02.432Z,32.10
2022-08-19T11:13:32.286Z,31.80
2022-08-19T11:16:07.114Z,32.10
2022-08-19T11:18:38.695Z,32.00
2022-08-19T11:21:14.126Z,31.80
2022-08-19T11:23:44.575Z,31.80
2022-08-19T11:26:14.038Z,31.60
2022-08-19T11:28:43.374Z,31.60
2022-08-19T11:31:18.495Z,31.70
2022-08-19T11:33:48.119Z,31.60
2022-08-19T11:36:17.974Z,31.70
2022-08-19T11:38:49.534Z,32.00
2022-08-19T11:41:22.205Z,32.00
2022-08-19T11:43:53.674Z,31.80
2022-08-19T11:46:23.905Z,31.80
2022-08-19T11:48:53.444Z,31.80
2022-08-19T11:51:25.929Z,31.90
2022-08-19T11:53:58.029Z,32.00
2022-08-19T11:56:27.923Z,32.00
2022-08-19T11:58:57.972Z,32.00
2022-08-19T12:01:28.792Z,32.20
2022-08-19T12:04:00.296Z,32.30
2022-08-19T12:06:34.554Z,32.40
2022-08-19T12:09:08.576Z,32.10
2022-08-19T12:11:38.240Z,32.30
2022-08-19T12:14:07.633Z,32.20
2022-08-19T12:16:39.817Z,32.30
2022-08-19T12:19:14.907Z,32.50
2022-08-19T12:21:52.141Z,32.20
2022-08-19T12:24:24.543Z,32.30
2022-08-19T12:26:55.651Z,32.70
2022-08-19T12:29:30.888Z,32.90
2022-08-19T12:32:03.860Z,33.20
2022-08-19T12:34:34.497Z,33.20
2022-08-19T12:37:05.994Z,33.30
2022-08-19T12:39:40.194Z,33.50
2022-08-19T12:42:10.408Z,33.20
2022-08-19T12:44:40.669Z,33.30
2022-08-19T12:47:13.326Z,33.50
2022-08-19T12:49:53.215Z,33.50
2022-08-19T12:52:24.666Z,33.30
2022-08-19T12:54:56.712Z,32.90
2022-08-19T12:57:32.454Z,32.90
2022-08-19T13:00:05.812Z,32.80
2022-08-19T13:02:38.921Z,32.70
2022-08-19T13:17:24.422Z,32.90
2022-08-19T13:19:53.416Z,32.90
2022-08-19T13:22:22.418Z,33.10
2022-08-19T13:24:51.936Z,33.30
2022-08-19T13:27:20.903Z,33.20
2022-08-19T13:30:07.302Z,33.00
2022-08-19T13:32:54.868Z,33.80
2022-08-19T13:35:24.426Z,34.70
2022-08-19T13:37:53.660Z,35.80
2022-08-19T13:40:27.798Z,35.50
2022-08-19T13:42:57.778Z,35.10
2022-08-19T13:45:29.224Z,34.40
2022-08-19T13:48:00.748Z,34.80
2022-08-19T13:50:32.830Z,36.40
2022-08-19T13:53:02.359Z,36.70
2022-08-19T13:55:31.730Z,35.70
2022-08-19T13:58:02.828Z,36.40
2022-08-19T14:00:33.969Z,36.70
2022-08-19T14:03:08.697Z,36.80
2022-08-19T14:05:39.418Z,37.10
2022-08-19T14:08:08.665Z,37.30
2022-08-19T14:10:37.680Z,38.00
2022-08-19T14:13:06.846Z,36.70
2022-08-19T14:15:35.910Z,35.10
2022-08-19T14:18:06.791Z,34.10
2022-08-19T14:20:37.373Z,33.40
2022-08-19T14:23:17.045Z,32.80
2022-08-19T14:25:46.061Z,32.30
2022-08-19T14:28:15.143Z,31.90
2022-08-19T14:30:46.347Z,31.80
2022-08-19T14:33:16.817Z,31.60
2022-08-19T14:35:46.239Z,31.60
2022-08-19T14:38:28.127Z,31.20
2022-08-19T14:41:10.420Z,31.30
2022-08-19T14:43:39.619Z,31.20
2022-08-19T14:46:09.381Z,31.10
2022-08-19T14:48:41.568Z,31.10
2022-08-19T14:51:11.342Z,31.00
2022-08-19T14:53:40.509Z,30.70
2022-08-19T14:56:13.482Z,30.70
2022-08-19T14:58:43.604Z,30.70
2022-08-19T15:01:14.109Z,30.50
2022-08-19T15:03:52.762Z,30.50
2022-08-19T15:06:22.327Z,30.40
2022-08-19T15:08:52.992Z,30.40
2022-08-19T15:11:23.934Z,30.40
2022-08-19T15:13:53.233Z,30.30
2022-08-19T15:16:23.004Z,30.30
2022-08-19T15:18:55.511Z,30.20
2022-08-19T15:21:27.556Z,30.20
2022-08-19T15:23:58.040Z,30.10
2022-08-19T15:26:27.720Z,30.10
2022-08-19T15:28:57.392Z,30.10
2022-08-19T15:31:28.144Z,30.20
2022-08-19T15:33:59.680Z,30.10
2022-08-19T15:36:29.632Z,30.20
2022-08-19T15:38:58.711Z,30.10
2022-08-19T15:41:30.917Z,30.00
2022-08-19T15:44:04.226Z,29.90
2022-08-19T15:46:35.551Z,29.90
2022-08-19T15:49:07.140Z,29.90
2022-08-19T15:51:37.620Z,29.80
2022-08-19T15:54:08.944Z,29.80
2022-08-19T15:56:57.912Z,29.70
2022-08-19T15:59:47.095Z,29.70
2022-08-19T16:02:34.871Z,29.60
2022-08-19T16:05:27.689Z,29.40
2022-08-19T16:07:57.045Z,29.30
2022-08-19T16:10:28.009Z,29.20
2022-08-19T16:12:58.115Z,29.10
2022-08-19T16:15:27.757Z,29.10
2022-08-19T16:17:57.854Z,28.90
2022-08-19T16:20:29.072Z,28.80
2022-08-19T16:22:59.087Z,28.70
2022-08-19T16:25:30.385Z,28.60
2022-08-19T16:28:07.320Z,28.60
2022-08-19T16:30:38.686Z,28.50
2022-08-19T16:33:07.858Z,28.40
2022-08-19T16:35:39.054Z,28.40
2022-08-19T16:38:08.426Z,28.30
2022-08-19T16:40:37.960Z,28.20
2022-08-19T16:43:08.720Z,28.20
2022-08-19T16:45:37.953Z,28.10
2022-08-19T16:48:11.720Z,28.10
2022-08-19T16:50:49.988Z,28.00
2022-08-19T16:53:21.250Z,28.00
2022-08-19T16:55:53.640Z,27.90
2022-08-19T16:58:28.585Z,27.80
2022-08-19T17:01:02.016Z,27.60
2022-08-19T17:03:35.780Z,27.50
2022-08-19T17:06:18.976Z,27.40
2022-08-19T17:08:51.179Z,27.20
2022-08-19T17:11:21.472Z,27.20
2022-08-19T17:13:52.413Z,27.10
2022-08-19T17:16:25.144Z,27.00
2022-08-19T17:18:54.961Z,26.90
2022-08-19T17:21:29.374Z,26.80
2022-08-19T17:23:58.511Z,26.60
2022-08-19T17:26:28.497Z,26.50
2022-08-19T17:28:58.976Z,26.30
2022-08-19T17:31:30.459Z,26.20
2022-08-19T17:33:59.809Z,26.00
2022-08-19T17:36:32.391Z,25.90
2022-08-19T17:39:04.071Z,25.80
2022-08-19T17:41:34.438Z,25.60
2022-08-19T17:44:04.023Z,25.50
2022-08-19T17:46:33.069Z,25.40
2022-08-19T17:49:02.068Z,25.30
2022-08-19T17:51:44.235Z,25.10
2022-08-19T17:54:15.970Z,25.00
2022-08-19T17:56:46.683Z,24.90
2022-08-19T17:59:17.348Z,24.80
2022-08-19T18:01:53.671Z,24.60
2022-08-19T18:04:25.253Z,24.50
2022-08-19T18:06:56.194Z,24.40
2022-08-19T18:09:27.160Z,24.40
2022-08-19T18:11:58.261Z,24.30
2022-08-19T18:14:33.810Z,24.20
2022-08-19T18:17:09.506Z,24.20
2022-08-19T18:19:41.855Z,24.20
2022-08-19T18:22:14.447Z,24.10
2022-08-19T18:24:46.037Z,24.10
2022-08-19T18:27:15.175Z,24.20
2022-08-19T18:29:44.294Z,24.20
2022-08-19T18:32:14.113Z,24.20
2022-08-19T18:34:44.080Z,24.20
2022-08-19T18:37:14.561Z,24.20
2022-08-19T18:39:57.350Z,24.10
2022-08-19T18:42:44.380Z,24.00
2022-08-19T18:45:31.380Z,23.90
2022-08-19T18:48:25.770Z,23.80
2022-08-19T18:50:58.214Z,23.60
2022-08-19T18:53:30.510Z,23.50
2022-08-19T18:56:00.153Z,23.40
2022-08-19T18:58:34.599Z,23.30
2022-08-19T19:01:11.780Z,23.30
2022-08-19T19:03:45.599Z,23.10
2022-08-19T19:06:15.829Z,23.10
2022-08-19T19:08:46.235Z,23.00
2022-08-19T19:11:17.965Z,23.00
2022-08-19T19:13:49.165Z,22.90
2022-08-19T19:16:22.423Z,22.90
2022-08-19T19:18:53.428Z,22.80
2022-08-19T19:21:23.945Z,22.80
2022-08-19T19:23:56.144Z,22.70
2022-08-19T19:26:25.635Z,22.60
2022-08-19T19:28:55.345Z,22.50
2022-08-19T19:31:27.514Z,22.40
2022-08-19T19:33:57.785Z,22.30
2022-08-19T19:36:26.817Z,22.20
2022-08-19T19:38:57.289Z,22.10
2022-08-19T19:41:26.873Z,22.00
2022-08-19T19:44:29.244Z,21.90
2022-08-19T19:46:48.538Z,21.80
2022-08-19T19:49:17.672Z,21.70
2022-08-19T19:51:46.825Z,21.60
2022-08-19T19:54:21.733Z,21.50
2022-08-19T19:56:52.885Z,21.50
2022-08-19T19:59:23.256Z,21.40
2022-08-19T20:01:54.498Z,21.40
2022-08-19T20:04:23.905Z,21.30
2022-08-19T20:06:52.879Z,21.30
2022-08-19T20:09:22.304Z,21.20
2022-08-19T20:11:55.086Z,21.20
2022-08-19T20:14:26.545Z,21.20
2022-08-19T20:16:57.223Z,21.10
2022-08-19T20:19:27.622Z,21.10
2022-08-19T20:21:57.813Z,21.10
2022-08-19T20:24:32.719Z,21.10
2022-08-19T20:27:02.330Z,21.10
2022-08-19T20:29:39.368Z,21.10
2022-08-19T20:32:11.754Z,21.20
2022-08-19T20:34:41.743Z,21.10
2022-08-19T20:37:10.704Z,21.10
2022-08-19T20:39:41.220Z,21.10
2022-08-19T20:42:10.181Z,21.20
2022-08-19T20:44:39.351Z,21.20
2022-08-19T20:47:08.446Z,21.10
2022-08-19T20:49:37.863Z,21.10
2022-08-19T20:52:07.502Z,21.10
2022-08-19T20:54:36.539Z,21.10
2022-08-19T20:57:06.894Z,21.10
2022-08-19T20:59:37.753Z,21.10
2022-08-19T21:02:06.866Z,21.10
2022-08-19T21:04:35.880Z,21.10
2022-08-19T21:07:05.219Z,21.00
2022-08-19T21:09:34.358Z,21.00
2022-08-19T21:12:07.758Z,21.00
2022-08-19T21:14:42.742Z,21.00
2022-08-19T21:17:12.229Z,21.00
2022-08-19T21:19:41.229Z,20.90
2022-08-19T21:22:10.667Z,20.90
2022-08-19T21:24:39.682Z,20.90
2022-08-19T21:27:10.173Z,20.80
2022-08-19T21:29:40.824Z,20.80
2022-08-19T21:32:14.239Z,20.80
2022-08-19T21:34:46.371Z,20.80
2022-08-19T21:37:25.765Z,20.70
2022-08-19T21:39:55.409Z,20.70
2022-08-19T21:42:25.943Z,20.70
2022-08-19T21:44:54.883Z,20.60
2022-08-19T21:47:23.941Z,20.60
2022-08-19T21:49:53.035Z,20.50
2022-08-19T21:52:24.010Z,20.50
2022-08-19T21:54:53.306Z,20.50
2022-08-19T21:57:22.865Z,20.40
2022-08-19T21:59:53.415Z,20.40
2022-08-19T22:02:22.565Z,20.40
2022-08-19T22:04:51.820Z,20.30
2022-08-19T22:07:23.906Z,20.30
2022-08-19T22:09:54.623Z,20.30
2022-08-19T22:12:26.746Z,20.30
2022-08-19T22:14:57.783Z,20.20
2022-08-19T22:17:28.279Z,20.20
2022-08-19T22:19:58.745Z,20.30
2022-08-19T22:22:29.317Z,20.30
2022-08-19T22:25:04.380Z,20.30
2022-08-19T22:27:33.744Z,20.30
2022-08-19T22:30:04.647Z,20.40
2022-08-19T22:32:34.142Z,20.30
2022-08-19T22:35:03.797Z,20.40
2022-08-19T22:37:32.752Z,20.40
2022-08-19T22:40:05.482Z,20.40
2022-08-19T22:42:34.729Z,20.40
2022-08-19T22:45:05.844Z,20.40
2022-08-19T22:47:35.529Z,20.40
2022-08-19T22:50:13.863Z,20.40
2022-08-19T22:52:51.895Z,20.40
2022-08-19T22:55:21.626Z,20.30
2022-08-19T22:57:50.584Z,20.30
2022-08-19T23:00:21.840Z,20.30
2022-08-19T23:02:52.581Z,20.20
2022-08-19T23:05:23.715Z,20.20
2022-08-19T23:07:53.078Z,20.10
2022-08-19T23:10:27.550Z,20.10
2022-08-19T23:12:58.646Z,20.00
2022-08-19T23:15:31.704Z,20.00
2022-08-19T23:18:03.003Z,20.00
2022-08-19T23:20:35.415Z,19.90
2022-08-19T23:23:06.117Z,19.90
2022-08-19T23:25:36.636Z,20.00
2022-08-19T23:28:23.356Z,19.90
2022-08-19T23:30:55.224Z,19.90
2022-08-19T23:33:46.776Z,19.90
2022-08-19T23:36:17.957Z,19.90
2022-08-19T23:38:49.515Z,19.90
2022-08-19T23:41:20.507Z,19.90
2022-08-19T23:43:50.820Z,19.80
2022-08-19T23:46:27.406Z,19.80
2022-08-19T23:48:57.660Z,19.80
2022-08-19T23:51:27.035Z,19.80
2022-08-19T23:53:56.115Z,19.70
2022-08-19T23:56:25.219Z,19.70
2022-08-19T23:58:55.243Z,19.70
